Time;durP1;ratioP1;P1;durP2;ratioP2;P2;SDS_P1;SDS_P2;PMS_P1;PMS_P2;Temp;Humidity;BMP_temperature;BMP_pressure;BME280_temperature;BME280_humidity;BME280_pressure;Samples;Min_cycle;Max_cycle;Signal;HPM_P1;HPM_P2
2023/12/20 00:01:07;;;;;;;6.30;5.35;;;;;;;5.54;100.00;100114.25;10349869;28;20077;-61
2023/12/20 00:06:09;;;;;;;5.63;5.13;;;;;;;5.59;100.00;100113.97;10355827;28;20046;-63
2023/12/20 00:11:11;;;;;;;5.30;4.78;;;;;;;5.46;100.00;100090.09;10345370;28;20054;-62
2023/12/20 00:16:12;;;;;;;5.00;4.45;;;;;;;5.61;100.00;100114.72;10356714;28;20195;-64
2023/12/20 00:21:14;;;;;;;5.05;4.55;;;;;;;5.62;100.00;100100.56;10347480;28;20694;-62
2023/12/20 00:26:15;;;;;;;5.97;5.32;;;;;;;5.55;100.00;100100.09;10346565;28;20427;-63
2023/12/20 00:31:17;;;;;;;5.47;3.53;;;;;;;5.54;100.00;100097.53;10344373;28;20108;-63
2023/12/20 00:36:21;;;;;;;5.90;4.80;;;;;;;5.57;100.00;100086.78;10353010;28;20041;-63
2023/12/20 00:41:25;;;;;;;4.13;3.72;;;;;;;5.58;100.00;100091.97;10345523;28;20077;-62
2023/12/20 00:46:27;;;;;;;4.18;3.78;;;;;;;5.51;100.00;100089.81;10344607;28;20135;-63
2023/12/20 00:51:28;;;;;;;4.50;3.15;;;;;;;5.52;100.00;100088.88;10342725;28;20056;-63
2023/12/20 00:56:30;;;;;;;4.22;3.17;;;;;;;5.50;100.00;100094.25;10344109;28;20054;-63
2023/12/20 01:01:33;;;;;;;4.38;3.47;;;;;;;5.47;100.00;100075.97;10341272;28;20060;-64
2023/12/20 01:06:34;;;;;;;4.43;3.80;;;;;;;5.52;100.00;100073.88;10347271;28;20128;-62
2023/12/20 01:11:36;;;;;;;5.55;3.38;;;;;;;5.56;100.00;100070.09;10348257;28;20709;-63
2023/12/20 01:16:37;;;;;;;3.67;3.28;;;;;;;5.60;100.00;100071.63;10345514;28;20065;-61
2023/12/20 01:21:42;;;;;;;4.25;3.80;;;;;;;5.63;100.00;100071.44;10345090;28;20057;-60
2023/12/20 01:26:46;;;;;;;4.03;3.28;;;;;;;5.65;100.00;100069.53;10342254;28;20060;-61
2023/12/20 01:31:47;;;;;;;4.10;3.67;;;;;;;5.65;100.00;100061.59;10341041;28;20060;-61
2023/12/20 01:36:49;;;;;;;3.72;3.35;;;;;;;5.72;100.00;100070.00;10344116;28;20057;-63
2023/12/20 01:41:50;;;;;;;4.00;3.10;;;;;;;5.74;100.00;100068.09;10348882;28;20164;-62
2023/12/20 01:46:52;;;;;;;3.58;3.22;;;;;;;5.71;100.00;100068.31;10340271;28;20244;-62
2023/12/20 01:51:54;;;;;;;3.25;2.95;;;;;;;5.71;100.00;100067.47;10340794;28;20089;-63
2023/12/20 01:56:55;;;;;;;4.05;3.15;;;;;;;5.76;100.00;100081.22;10339294;28;20558;-63
2023/12/20 02:01:57;;;;;;;4.47;3.15;;;;;;;5.69;100.00;100085.19;10340838;28;20505;-62
2023/12/20 02:06:59;;;;;;;3.78;3.30;;;;;;;5.58;100.00;100080.56;10342746;28;20462;-63
2023/12/20 02:12:01;;;;;;;3.97;3.08;;;;;;;5.51;100.00;100048.44;10342345;28;20041;-62
2023/12/20 02:17:03;;;;;;;3.78;3.17;;;;;;;5.80;100.00;100062.44;10347026;28;20065;-62
2023/12/20 02:22:06;;;;;;;3.00;2.72;;;;;;;5.81;100.00;100076.47;10342011;28;20691;-63
2023/12/20 02:27:08;;;;;;;3.53;2.92;;;;;;;5.78;100.00;100058.19;10339719;28;20049;-63
2023/12/20 02:32:09;;;;;;;2.67;2.47;;;;;;;5.74;100.00;100072.56;10341820;28;20441;-62
2023/12/20 02:37:11;;;;;;;2.53;2.30;;;;;;;5.71;100.00;100046.34;10343856;28;20063;-61
2023/12/20 02:42:13;;;;;;;2.72;2.00;;;;;;;5.75;100.00;100053.09;10337547;28;20064;-63
2023/12/20 02:47:14;;;;;;;1.80;1.63;;;;;;;5.68;100.00;100062.38;10323727;28;20046;-63
2023/12/20 02:52:15;;;;;;;2.50;2.30;;;;;;;5.71;100.00;100062.19;10349480;28;20124;-62
2023/12/20 02:57:17;;;;;;;1.88;1.73;;;;;;;5.78;100.00;100066.09;10340184;28;20061;-63
2023/12/20 03:02:19;;;;;;;2.85;2.17;;;;;;;5.74;100.00;100072.56;10341162;28;20112;-61
2023/12/20 03:07:21;;;;;;;2.75;2.17;;;;;;;5.80;100.00;100082.72;10337842;28;20057;-61
2023/12/20 03:12:22;;;;;;;2.92;2.38;;;;;;;5.80;100.00;100077.44;10342845;28;20054;-62
2023/12/20 03:17:24;;;;;;;2.75;2.42;;;;;;;5.77;100.00;100062.63;10346617;28;20069;-62
2023/12/20 03:22:26;;;;;;;2.60;2.30;;;;;;;5.75;100.00;100067.16;10339034;28;20134;-62
2023/12/20 03:27:28;;;;;;;2.95;2.40;;;;;;;5.80;100.00;100066.88;10342894;28;20136;-64
2023/12/20 03:32:30;;;;;;;2.20;1.98;;;;;;;5.82;100.00;100072.91;10349449;28;20057;-64
2023/12/20 03:37:31;;;;;;;2.13;1.92;;;;;;;5.86;100.00;100092.06;10350431;28;20057;-64
2023/12/20 03:42:32;;;;;;;3.10;2.30;;;;;;;5.90;100.00;100089.13;10346562;28;20781;-62
2023/12/20 03:47:34;;;;;;;1.88;1.52;;;;;;;5.97;100.00;100098.34;10345566;28;20050;-62
2023/12/20 03:52:38;;;;;;;2.08;1.85;;;;;;;6.07;100.00;100103.09;10347427;28;20049;-62
2023/12/20 03:57:39;;;;;;;2.15;1.67;;;;;;;6.06;100.00;100109.31;10345964;28;20049;-61
2023/12/20 04:02:42;;;;;;;2.20;2.00;;;;;;;6.11;100.00;100089.56;10346735;28;20072;-62
2023/12/20 04:07:43;;;;;;;2.05;1.75;;;;;;;6.21;100.00;100104.84;10344890;28;20064;-63
2023/12/20 04:12:45;;;;;;;1.98;1.77;;;;;;;6.19;100.00;100112.88;10352014;28;20069;-63
2023/12/20 04:17:47;;;;;;;2.13;1.92;;;;;;;6.20;100.00;100101.34;10340750;28;20097;-63
2023/12/20 04:22:49;;;;;;;2.22;2.00;;;;;;;6.21;100.00;100103.03;10347341;28;20139;-61
2023/12/20 04:27:51;;;;;;;2.53;1.70;;;;;;;6.26;100.00;100122.09;10349302;28;20060;-62
2023/12/20 04:32:52;;;;;;;2.33;2.00;;;;;;;6.26;100.00;100121.22;10348322;28;20263;-63
2023/12/20 04:37:53;;;;;;;2.80;2.00;;;;;;;6.26;100.00;100122.09;10346990;28;20057;-62
2023/12/20 04:42:55;;;;;;;3.58;2.20;;;;;;;6.30;100.00;100134.16;10347319;28;20068;-63
2023/12/20 04:47:56;;;;;;;2.13;1.85;;;;;;;6.36;100.00;100128.50;10347765;28;20060;-63
2023/12/20 04:52:58;;;;;;;2.38;2.08;;;;;;;6.11;100.00;100105.44;10347185;28;20048;-62
2023/12/20 04:57:59;;;;;;;1.65;1.50;;;;;;;6.25;100.00;100133.59;10346754;28;20128;-62
2023/12/20 05:03:01;;;;;;;3.25;1.73;;;;;;;6.28;100.00;100140.50;10338584;28;20574;-61
2023/12/20 05:08:02;;;;;;;2.03;1.83;;;;;;;6.34;100.00;100154.16;10345896;28;20364;-62
2023/12/20 05:13:04;;;;;;;2.15;1.90;;;;;;;6.42;100.00;100160.75;10333994;28;20052;-62
2023/12/20 05:18:06;;;;;;;3.85;2.20;;;;;;;6.43;100.00;100184.44;10339401;28;20058;-61
2023/12/20 05:23:11;;;;;;;2.80;1.83;;;;;;;6.30;100.00;100179.09;10335621;28;20053;-62
2023/12/20 05:28:12;;;;;;;2.72;2.00;;;;;;;6.14;100.00;100173.94;10327403;28;20073;-64
2023/12/20 05:33:14;;;;;;;3.65;2.30;;;;;;;6.25;100.00;100173.25;10345704;28;20056;-62
2023/12/20 05:38:16;;;;;;;3.28;2.40;;;;;;;6.35;100.00;100184.94;10341441;28;20548;-60
2023/12/20 05:43:17;;;;;;;3.65;2.30;;;;;;;6.40;100.00;100189.94;10342662;28;20053;-62
2023/12/20 05:48:19;;;;;;;4.43;2.10;;;;;;;6.36;100.00;100181.38;10338301;28;20049;-62
2023/12/20 05:53:20;;;;;;;5.78;2.78;;;;;;;6.40;100.00;100186.47;10339226;28;20072;-63
2023/12/20 05:58:24;;;;;;;3.85;2.22;;;;;;;6.40;100.00;100178.53;10337904;28;20064;-62
2023/12/20 06:03:25;;;;;;;3.80;1.45;;;;;;;6.45;100.00;100187.84;10338266;28;20050;-62
2023/12/20 06:08:27;;;;;;;4.55;1.08;;;;;;;6.45;100.00;100192.28;10339717;28;20056;-62
2023/12/20 06:13:28;;;;;;;2.97;1.55;;;;;;;6.50;100.00;100201.63;10344016;28;20092;-62
2023/12/20 06:18:29;;;;;;;1.95;1.30;;;;;;;6.51;100.00;100215.69;10337106;28;20041;-63
2023/12/20 06:23:31;;;;;;;3.92;2.33;;;;;;;6.46;100.00;100223.09;10340960;28;20124;-62
2023/12/20 06:28:34;;;;;;;4.82;2.25;;;;;;;6.41;100.00;100219.88;10337756;28;20073;-62
2023/12/20 06:33:37;;;;;;;2.47;0.98;;;;;;;6.43;99.25;100223.28;10338679;28;20058;-62
2023/12/20 06:38:38;;;;;;;4.13;1.30;;;;;;;6.38;98.44;100199.78;10344170;28;20045;-62
2023/12/20 06:43:40;;;;;;;6.95;1.63;;;;;;;6.34;97.68;100211.50;10346126;28;20063;-61
2023/12/20 06:48:50;;;;;;;3.85;1.15;;;;;;;6.36;97.86;100218.38;10339264;28;20088;-63
2023/12/20 06:53:52;;;;;;;4.90;1.67;;;;;;;6.14;97.87;100183.66;10342350;28;20054;-63
2023/12/20 06:58:53;;;;;;;3.22;1.40;;;;;;;6.32;97.54;100216.00;10337411;28;20062;-62
2023/12/20 07:03:55;;;;;;;3.83;1.58;;;;;;;6.36;97.95;100223.66;10344127;28;20067;-63
2023/12/20 07:08:57;;;;;;;3.47;1.23;;;;;;;6.42;97.62;100226.84;10344735;28;20541;-63
2023/12/20 07:13:59;;;;;;;3.90;1.60;;;;;;;6.45;99.52;100243.38;10357190;28;20061;-62
2023/12/20 07:19:00;;;;;;;3.38;1.33;;;;;;;6.39;95.45;100237.63;10347186;28;20053;-62
2023/12/20 07:24:04;;;;;;;4.18;1.60;;;;;;;6.45;96.52;100253.09;10344995;28;20058;-62
2023/12/20 07:29:06;;;;;;;3.53;1.20;;;;;;;6.44;96.53;100251.41;10340775;28;20393;-62
2023/12/20 07:34:08;;;;;;;3.38;1.63;;;;;;;6.46;95.45;100257.47;10350398;28;20041;-62
2023/12/20 07:39:10;;;;;;;6.72;1.35;;;;;;;6.32;96.48;100238.03;10346766;28;20075;-63
2023/12/20 07:44:11;;;;;;;3.55;1.75;;;;;;;6.36;95.96;100255.41;10343721;28;20046;-63
2023/12/20 07:49:13;;;;;;;3.10;1.50;;;;;;;6.30;95.47;100245.19;10346186;28;20514;-62
2023/12/20 07:54:16;;;;;;;4.80;1.35;;;;;;;6.38;95.28;100252.66;10351913;28;20057;-63
2023/12/20 07:59:17;;;;;;;5.32;2.20;;;;;;;6.33;93.94;100255.56;10339088;28;20060;-62
2023/12/20 08:04:32;;;;;;;4.22;1.30;;;;;;;6.36;93.36;100259.81;10345373;28;20148;-64
2023/12/20 08:09:36;;;;;;;4.68;2.00;;;;;;;6.40;93.34;100263.13;10342211;28;20170;-62
2023/12/20 08:14:37;;;;;;;4.43;1.35;;;;;;;6.32;93.09;100269.75;10349541;28;20046;-63
2023/12/20 08:19:39;;;;;;;4.60;1.38;;;;;;;6.29;92.81;100261.13;10326165;28;20053;-64
2023/12/20 08:24:41;;;;;;;6.78;1.80;;;;;;;6.36;93.37;100265.97;10346123;28;20600;-63
2023/12/20 08:29:46;;;;;;;3.47;1.73;;;;;;;6.43;93.01;100265.59;10342982;28;20049;-62
2023/12/20 08:34:47;;;;;;;;;;;;;;;6.43;92.55;100262.94;10343090;28;20409;-64
2023/12/20 08:39:49;;;;;;;4.22;1.38;;;;;;;6.36;93.26;100270.38;10344614;28;19921;-63
2023/12/20 08:44:50;;;;;;;4.68;1.27;;;;;;;6.46;92.62;100270.69;10343894;28;20054;-64
2023/12/20 08:49:56;;;;;;;4.95;1.55;;;;;;;6.24;92.47;100250.84;10343137;28;20124;-63
2023/12/20 08:54:58;;;;;;;4.75;1.50;;;;;;;6.39;91.73;100266.72;10344371;28;20557;-61
2023/12/20 08:59:59;;;;;;;4.65;1.58;;;;;;;6.26;92.45;100274.56;10346946;28;20045;-64
2023/12/20 09:05:02;;;;;;;3.63;1.63;;;;;;;6.27;93.54;100265.69;10339793;28;20072;-65
2023/12/20 09:10:04;;;;;;;8.43;1.85;;;;;;;6.43;92.81;100265.59;10347612;28;20044;-65
2023/12/20 09:15:05;;;;;;;3.10;1.33;;;;;;;6.44;93.34;100261.97;10348598;28;20522;-63
2023/12/20 09:20:08;;;;;;;4.85;1.48;;;;;;;6.51;93.23;100272.06;10341678;28;20133;-62
2023/12/20 09:25:11;;;;;;;6.75;2.10;;;;;;;6.51;91.91;100273.88;10337507;28;20537;-65
2023/12/20 09:30:12;;;;;;;9.63;2.03;;;;;;;6.47;93.03;100277.66;10344664;28;20060;-66
2023/12/20 09:35:26;;;;;;;5.93;1.75;;;;;;;6.71;93.78;100265.53;10341143;28;20053;-64
2023/12/20 09:40:28;;;;;;;4.85;1.92;;;;;;;6.85;92.96;100266.44;10355004;28;20231;-66
2023/12/20 09:45:31;;;;;;;7.88;2.20;;;;;;;6.94;92.06;100276.41;10341199;28;20082;-62
2023/12/20 09:50:34;;;;;;;5.38;2.45;;;;;;;6.80;93.30;100250.00;10351586;28;20472;-64
2023/12/20 09:55:37;;;;;;;5.07;1.65;;;;;;;6.99;92.39;100282.25;10339020;28;20057;-64
2023/12/20 10:00:39;;;;;;;5.90;2.35;;;;;;;6.91;91.66;100287.19;10339576;28;20050;-64
2023/12/20 10:05:43;;;;;;;6.47;1.90;;;;;;;6.93;92.35;100295.03;10338584;28;20057;-64
2023/12/20 10:10:44;;;;;;;6.60;1.70;;;;;;;6.90;92.93;100290.78;10341526;28;20695;-62
2023/12/20 10:15:49;;;;;;;8.00;2.10;;;;;;;6.94;91.80;100272.94;10312309;28;20053;-63
2023/12/20 10:20:51;;;;;;;5.88;2.97;;;;;;;6.96;92.21;100263.91;10343457;28;20576;-64
2023/12/20 10:25:57;;;;;;;12.18;6.43;;;;;;;7.10;92.16;100257.75;10342071;28;20492;-62
2023/12/20 10:31:01;;;;;;;7.47;3.00;;;;;;;7.17;91.22;100255.53;10337458;28;20049;-66
2023/12/20 10:36:03;;;;;;;19.45;17.02;;;;;;;7.12;90.85;100242.59;10306594;28;20050;-65
2023/12/20 10:41:05;;;;;;;8.70;5.90;;;;;;;7.35;90.43;100217.22;10334623;28;20053;-65
2023/12/20 10:46:08;;;;;;;4.35;2.85;;;;;;;7.77;88.92;100207.28;10340398;28;20179;-65
2023/12/20 10:51:10;;;;;;;3.47;1.70;;;;;;;8.43;87.76;100216.84;10337142;28;20046;-65
2023/12/20 10:56:23;;;;;;;4.60;2.55;;;;;;;8.61;84.83;100191.63;10341316;28;20082;-64
2023/12/20 11:01:26;;;;;;;5.03;2.00;;;;;;;9.07;81.89;100191.84;10354744;28;20577;-66
2023/12/20 11:06:45;;;;;;;4.75;2.00;;;;;;;8.66;82.29;100204.56;10334432;28;20561;-65
2023/12/20 11:12:04;;;;;;;6.97;2.78;;;;;;;9.05;82.68;100204.38;10321310;28;20057;-66
2023/12/20 11:17:09;;;;;;;6.00;2.58;;;;;;;9.11;81.46;100202.13;10331496;28;20109;-65
2023/12/20 11:22:11;;;;;;;7.65;2.45;;;;;;;9.51;78.20;100190.28;10334796;28;20582;-66
2023/12/20 11:27:13;;;;;;;6.43;1.92;;;;;;;9.12;79.15;100189.69;10327116;28;20050;-66
2023/12/20 11:32:24;;;;;;;15.77;4.70;;;;;;;8.92;79.63;100210.63;10336375;28;20088;-65
2023/12/20 11:37:31;;;;;;;9.50;3.58;;;;;;;8.61;81.39;100201.41;10335194;28;20053;-66
2023/12/20 11:42:51;;;;;;;7.75;4.38;;;;;;;8.45;81.24;100196.38;10353421;28;20127;-65
2023/12/20 11:47:54;;;;;;;9.95;3.08;;;;;;;8.45;82.04;100188.41;10337760;28;20636;-62
2023/12/20 11:52:56;;;;;;;6.43;3.10;;;;;;;8.26;80.54;100196.84;10347032;28;20056;-65
2023/12/20 11:57:58;;;;;;;9.77;3.30;;;;;;;8.32;81.96;100199.03;10339007;28;20162;-63
2023/12/20 12:02:59;;;;;;;15.35;11.65;;;;;;;8.33;79.90;100192.75;10361517;28;20053;-64
2023/12/20 12:08:04;;;;;;;6.07;2.05;;;;;;;8.36;80.05;100186.41;10349482;28;20057;-63
2023/12/20 12:13:06;;;;;;;5.18;2.35;;;;;;;8.29;77.76;100176.25;10330201;28;20081;-60
2023/12/20 12:18:08;;;;;;;5.20;1.48;;;;;;;8.34;78.53;100149.38;10357935;28;20056;-62
2023/12/20 12:23:10;;;;;;;6.07;1.73;;;;;;;8.57;75.87;100168.09;10342593;28;20049;-63
2023/12/20 12:28:11;;;;;;;5.32;1.92;;;;;;;8.51;75.40;100144.69;10345728;28;20046;-62
2023/12/20 12:33:13;;;;;;;5.57;1.83;;;;;;;9.07;73.82;100176.78;10343595;28;20152;-64
2023/12/20 12:38:15;;;;;;;2.50;1.70;;;;;;;8.93;72.56;100161.03;10344984;28;20057;-64
2023/12/20 12:43:20;;;;;;;4.63;2.22;;;;;;;8.71;73.49;100159.13;10340538;28;20054;-64
2023/12/20 12:48:22;;;;;;;4.80;1.70;;;;;;;8.64;74.42;100164.88;10341180;28;20056;-64
2023/12/20 12:53:26;;;;;;;4.35;2.20;;;;;;;8.66;74.06;100146.19;10347649;28;20648;-64
2023/12/20 12:58:27;;;;;;;6.13;1.77;;;;;;;8.65;74.07;100123.28;10346548;28;20506;-65
2023/12/20 13:03:29;;;;;;;6.63;1.42;;;;;;;8.75;73.62;100113.69;10340704;28;20471;-63
2023/12/20 13:08:32;;;;;;;4.57;1.42;;;;;;;8.75;73.06;100108.38;10348704;28;20096;-64
2023/12/20 13:13:33;;;;;;;3.22;1.65;;;;;;;8.80;74.73;100106.22;10348732;28;20293;-63
2023/12/20 13:18:35;;;;;;;6.70;1.38;;;;;;;9.08;74.06;100096.13;10339441;28;20056;-64
2023/12/20 13:23:37;;;;;;;5.85;1.52;;;;;;;8.69;73.23;100052.25;10340156;28;20050;-64
2023/12/20 13:28:41;;;;;;;3.67;1.08;;;;;;;8.64;74.85;100084.44;10324570;28;20076;-64
2023/12/20 13:33:44;;;;;;;3.95;1.23;;;;;;;8.53;75.37;100076.41;10339575;28;20056;-64
2023/12/20 13:38:46;;;;;;;6.93;1.95;;;;;;;8.40;75.82;100058.75;10341274;28;20063;-65
2023/12/20 13:43:47;;;;;;;6.85;1.80;;;;;;;8.35;76.17;100047.66;10347566;28;20175;-65
2023/12/20 13:48:49;;;;;;;5.03;2.15;;;;;;;8.38;77.22;100058.03;10343734;28;20061;-65
2023/12/20 13:53:51;;;;;;;4.35;1.60;;;;;;;8.36;77.45;100078.53;10342305;28;20283;-65
2023/12/20 13:58:54;;;;;;;3.83;1.75;;;;;;;8.19;76.96;100066.47;10345025;28;20049;-63
2023/12/20 14:03:57;;;;;;;8.98;5.43;;;;;;;8.21;77.37;100077.84;10340660;28;20084;-62
2023/12/20 14:09:02;;;;;;;4.10;2.60;;;;;;;8.23;78.08;100081.22;10337564;28;20155;-62
2023/12/20 14:14:03;;;;;;;7.13;3.47;;;;;;;8.17;78.71;100086.97;10335933;28;20081;-64
2023/12/20 14:19:07;;;;;;;6.85;2.70;;;;;;;8.14;78.74;100066.81;10340639;28;20053;-63
2023/12/20 14:24:09;;;;;;;3.83;2.63;;;;;;;8.14;79.41;100050.91;10349414;28;20463;-63
2023/12/20 14:29:10;;;;;;;3.75;1.70;;;;;;;8.13;79.36;100064.28;10339443;28;20081;-66
2023/12/20 14:34:12;;;;;;;4.40;2.13;;;;;;;8.07;80.24;100054.97;10343317;28;20053;-64
2023/12/20 14:39:21;;;;;;;4.22;1.70;;;;;;;8.04;80.59;100059.66;10332239;28;20085;-63
2023/12/20 14:44:22;;;;;;;4.80;1.40;;;;;;;7.99;80.97;100054.69;10346689;28;20489;-66
2023/12/20 14:49:26;;;;;;;4.90;2.13;;;;;;;8.00;81.25;100043.16;10346230;28;20058;-65
2023/12/20 14:54:29;;;;;;;;;;;;;;;8.06;80.59;100034.75;10348225;28;20046;-65
2023/12/20 14:59:30;;;;;;;10.57;5.97;;;;;;;7.95;81.54;100051.41;10343535;28;19921;-65
2023/12/20 15:04:32;;;;;;;3.92;1.10;;;;;;;7.90;81.12;100063.31;10337774;28;20057;-66
2023/12/20 15:09:34;;;;;;;4.18;1.52;;;;;;;7.84;80.99;100053.16;10336360;28;20060;-65
2023/12/20 15:14:35;;;;;;;2.65;1.10;;;;;;;7.79;81.12;100051.69;10350791;28;20445;-67
2023/12/20 15:19:37;;;;;;;4.60;1.73;;;;;;;7.84;81.20;100061.13;10340802;28;20056;-65
2023/12/20 15:24:40;;;;;;;3.90;1.70;;;;;;;7.95;81.79;100063.81;10339403;28;21812;-64
2023/12/20 15:29:43;;;;;;;4.25;1.20;;;;;;;7.89;81.83;100051.03;10340759;28;20050;-64
2023/12/20 15:34:45;;;;;;;3.22;1.88;;;;;;;7.87;81.57;100047.66;10346929;28;20069;-64
2023/12/20 15:39:48;;;;;;;3.72;1.65;;;;;;;7.88;82.16;100044.03;10346800;28;20706;-64
2023/12/20 15:44:49;;;;;;;4.50;1.40;;;;;;;7.78;82.16;100030.59;10342267;28;20503;-63
2023/12/20 15:49:51;;;;;;;5.43;2.55;;;;;;;7.82;82.81;100033.88;10344484;28;20049;-63
2023/12/20 15:54:53;;;;;;;4.65;1.52;;;;;;;7.80;82.30;100036.63;10343480;28;20577;-64
2023/12/20 15:59:54;;;;;;;6.03;1.83;;;;;;;7.79;82.53;100032.28;10335938;28;20695;-64
2023/12/20 16:04:56;;;;;;;3.92;2.10;;;;;;;7.80;83.02;100031.31;10357767;28;20119;-64
2023/12/20 16:09:57;;;;;;;7.43;2.03;;;;;;;7.80;82.67;100039.28;10345860;28;20574;-65
2023/12/20 16:14:59;;;;;;;4.57;1.80;;;;;;;7.79;82.95;100040.22;10345651;28;20105;-64
2023/12/20 16:20:03;;;;;;;3.00;1.40;;;;;;;7.76;83.00;100049.25;10344028;28;20037;-64
2023/12/20 16:25:04;;;;;;;4.07;1.48;;;;;;;7.74;83.13;100040.56;10342043;28;20550;-65
2023/12/20 16:30:08;;;;;;;4.50;2.30;;;;;;;7.64;83.38;100036.91;10351791;28;20061;-64
2023/12/20 16:35:10;;;;;;;4.78;1.63;;;;;;;7.59;83.93;100044.31;10346511;28;20044;-63
2023/12/20 16:40:13;;;;;;;7.32;2.05;;;;;;;7.55;84.13;100048.13;10340797;28;20054;-62
2023/12/20 16:45:14;;;;;;;5.20;1.83;;;;;;;7.46;84.40;100047.00;10355285;28;20073;-65
2023/12/20 16:50:16;;;;;;;5.30;1.67;;;;;;;7.56;84.36;100055.13;10321159;28;20057;-65
2023/12/20 16:55:19;;;;;;;5.03;2.20;;;;;;;7.52;85.26;100048.34;10336072;28;20061;-63
2023/12/20 17:00:22;;;;;;;6.20;2.38;;;;;;;7.58;84.90;100047.91;10340680;28;20522;-63
2023/12/20 17:05:24;;;;;;;4.82;2.17;;;;;;;7.59;85.29;100046.97;10340586;28;20609;-63
2023/12/20 17:10:25;;;;;;;5.32;2.13;;;;;;;7.50;85.56;100034.38;10344626;28;20053;-64
2023/12/20 17:15:27;;;;;;;5.70;2.00;;;;;;;7.57;85.53;100035.66;10342156;28;20221;-64
2023/12/20 17:20:28;;;;;;;4.78;1.80;;;;;;;7.65;85.76;100033.28;10332776;28;20057;-64
2023/12/20 17:25:30;;;;;;;3.88;1.70;;;;;;;7.53;86.17;100039.47;10337617;28;20153;-63
2023/12/20 17:30:32;;;;;;;3.65;1.45;;;;;;;7.52;86.13;100048.34;10344925;28;20063;-64
2023/12/20 17:35:33;;;;;;;8.82;2.08;;;;;;;7.45;86.32;100047.94;10345962;28;20049;-63
2023/12/20 17:40:39;;;;;;;5.18;2.08;;;;;;;7.39;86.96;100040.44;10344451;28;22831;-63
2023/12/20 17:45:41;;;;;;;3.33;1.70;;;;;;;7.39;87.25;100049.22;10331465;28;20067;-62
2023/12/20 17:50:43;;;;;;;9.48;3.53;;;;;;;7.38;87.30;100038.75;10330749;28;20493;-63
2023/12/20 17:55:45;;;;;;;19.92;7.88;;;;;;;7.43;87.93;100053.34;10323388;28;20830;-63
2023/12/20 18:00:47;;;;;;;8.82;4.22;;;;;;;7.43;87.30;100029.53;10333509;28;20427;-62
2023/12/20 18:05:49;;;;;;;8.48;3.38;;;;;;;7.47;87.72;100024.00;10329230;28;20060;-65
2023/12/20 18:10:50;;;;;;;7.45;2.67;;;;;;;7.46;87.68;100019.66;10343256;28;20093;-62
2023/12/20 18:15:54;;;;;;;5.63;2.10;;;;;;;7.42;88.29;100008.44;10341780;28;21428;-63
2023/12/20 18:20:57;;;;;;;4.68;1.38;;;;;;;7.35;89.37;100010.66;10347693;28;20108;-63
2023/12/20 18:25:58;;;;;;;6.45;2.33;;;;;;;7.40;89.87;100007.69;10324706;28;20161;-62
2023/12/20 18:31:02;;;;;;;3.78;1.95;;;;;;;7.41;90.63;100010.22;10337239;28;20042;-64
2023/12/20 18:36:05;;;;;;;5.60;2.10;;;;;;;7.39;91.20;100003.38;10323598;28;20042;-63
2023/12/20 18:41:06;;;;;;;6.55;2.50;;;;;;;7.37;92.21;99998.19;10339585;28;20054;-63
2023/12/20 18:46:08;;;;;;;5.93;2.35;;;;;;;7.40;92.86;99997.09;10343698;28;20057;-62
2023/12/20 18:51:10;;;;;;;6.03;2.58;;;;;;;7.38;92.77;99994.56;10339210;28;20057;-62
2023/12/20 18:56:12;;;;;;;5.45;2.42;;;;;;;7.39;93.59;99988.31;10324960;28;20532;-64
2023/12/20 19:01:13;;;;;;;5.05;1.55;;;;;;;7.41;94.13;99983.75;10342508;28;20088;-63
2023/12/20 19:06:17;;;;;;;6.13;1.83;;;;;;;7.42;94.82;99984.63;10351766;28;20057;-63
2023/12/20 19:11:20;;;;;;;5.80;2.30;;;;;;;7.44;94.88;99988.00;10350333;28;20561;-61
2023/12/20 19:16:24;;;;;;;5.07;1.75;;;;;;;7.47;94.56;99971.88;10348732;28;20113;-63
2023/12/20 19:21:26;;;;;;;5.47;2.03;;;;;;;7.49;94.58;99969.13;10351828;28;20058;-63
2023/12/20 19:26:28;;;;;;;6.50;3.03;;;;;;;7.44;94.78;99950.91;10345029;28;21300;-64
2023/12/20 19:31:31;;;;;;;5.38;2.22;;;;;;;7.42;95.08;99932.50;10354296;28;20053;-62
2023/12/20 19:36:34;;;;;;;5.05;2.35;;;;;;;7.23;95.07;99929.47;10348034;28;20187;-62
2023/12/20 19:41:37;;;;;;;6.28;2.50;;;;;;;7.38;95.99;99949.53;10346888;28;20050;-62
2023/12/20 19:46:39;;;;;;;4.32;2.10;;;;;;;7.37;96.87;99955.81;10349571;28;20053;-60
2023/12/20 19:51:42;;;;;;;3.75;2.35;;;;;;;7.40;98.20;99945.00;10344225;28;20111;-63
2023/12/20 19:56:44;;;;;;;4.03;2.10;;;;;;;7.40;98.67;99937.06;10353211;28;20042;-63
2023/12/20 20:01:47;;;;;;;4.35;2.22;;;;;;;7.33;98.70;99930.50;10356071;28;20060;-64
2023/12/20 20:06:51;;;;;;;4.30;2.42;;;;;;;7.35;99.62;99925.94;10349292;28;20049;-64
2023/12/20 20:11:53;;;;;;;5.65;2.20;;;;;;;7.31;100.00;99937.72;10342296;28;20056;-64
2023/12/20 20:16:55;;;;;;;4.93;2.25;;;;;;;7.33;100.00;99927.84;10351421;28;20104;-63
2023/12/20 20:21:57;;;;;;;5.82;2.15;;;;;;;7.33;100.00;99900.56;10342644;28;20049;-63
2023/12/20 20:26:59;;;;;;;4.30;2.00;;;;;;;7.35;100.00;99894.16;10342363;28;20049;-64
2023/12/20 20:32:04;;;;;;;5.57;2.35;;;;;;;7.35;100.00;99894.16;10345808;28;20077;-63
2023/12/20 20:37:06;;;;;;;7.07;3.43;;;;;;;7.31;100.00;99876.84;10337219;28;20119;-62
2023/12/20 20:42:08;;;;;;;3.78;2.45;;;;;;;7.25;100.00;99862.22;10358126;28;20150;-60
2023/12/20 20:47:09;;;;;;;5.15;2.58;;;;;;;7.39;100.00;99877.09;10331691;28;20098;-62
2023/12/20 20:52:11;;;;;;;5.18;2.22;;;;;;;7.43;100.00;99862.69;10346202;28;20058;-62
2023/12/20 20:57:12;;;;;;;3.40;2.13;;;;;;;7.39;100.00;99855.09;10341868;28;20054;-65
2023/12/20 21:02:14;;;;;;;4.43;2.70;;;;;;;7.40;100.00;99854.09;10351241;28;20073;-63
2023/12/20 21:07:18;;;;;;;5.47;1.98;;;;;;;7.28;100.00;99808.22;10348059;28;20665;-62
2023/12/20 21:12:20;;;;;;;5.82;2.30;;;;;;;7.37;100.00;99823.41;10343088;28;20155;-63
2023/12/20 21:17:21;;;;;;;5.40;2.47;;;;;;;7.35;100.00;99814.72;10344764;28;20065;-63
2023/12/20 21:22:23;;;;;;;2.90;2.30;;;;;;;7.33;100.00;99811.34;10342350;28;20164;-62
2023/12/20 21:27:25;;;;;;;5.07;2.70;;;;;;;7.30;100.00;99805.47;10345398;28;20100;-62
2023/12/20 21:32:26;;;;;;;4.78;2.85;;;;;;;7.35;100.00;99801.47;10346138;28;20053;-62
2023/12/20 21:37:27;;;;;;;5.03;2.67;;;;;;;7.37;100.00;99799.59;10349289;28;20065;-63
2023/12/20 21:42:30;;;;;;;6.35;2.60;;;;;;;7.30;100.00;99790.41;10339332;28;20515;-64
2023/12/20 21:47:31;;;;;;;5.90;3.17;;;;;;;7.38;100.00;99787.19;10341850;28;20426;-64
2023/12/20 21:52:33;;;;;;;4.70;2.67;;;;;;;7.35;100.00;99777.66;10343776;28;20049;-63
2023/12/20 21:57:35;;;;;;;3.97;2.58;;;;;;;7.39;100.00;99762.41;10334899;28;20057;-65
2023/12/20 22:02:36;;;;;;;3.58;2.50;;;;;;;7.34;100.00;99754.81;10336353;28;20058;-62
2023/12/20 22:07:38;;;;;;;5.78;2.63;;;;;;;7.38;100.00;99756.25;10345262;28;20519;-64
2023/12/20 22:12:40;;;;;;;5.47;3.22;;;;;;;7.29;100.00;99754.28;10338826;28;20368;-64
2023/12/20 22:17:42;;;;;;;3.15;2.38;;;;;;;7.31;100.00;99749.75;10338433;28;20606;-64
2023/12/20 22:22:44;;;;;;;3.92;3.10;;;;;;;7.29;100.00;99735.75;10336396;28;20151;-62
2023/12/20 22:27:45;;;;;;;3.85;2.50;;;;;;;7.36;100.00;99744.94;10340317;28;20073;-64
2023/12/20 22:32:47;;;;;;;6.22;1.95;;;;;;;7.36;100.00;99729.03;10338939;28;20546;-65
2023/12/20 22:37:49;;;;;;;2.92;2.25;;;;;;;7.36;100.00;99715.81;10322981;28;20054;-64
2023/12/20 22:42:50;;;;;;;2.97;1.92;;;;;;;7.28;100.00;99712.91;10339372;28;20058;-63
2023/12/20 22:47:52;;;;;;;5.47;2.63;;;;;;;7.08;100.00;99694.03;10329784;28;20065;-63
2023/12/20 22:52:54;;;;;;;5.22;2.15;;;;;;;7.22;100.00;99705.41;10331861;28;20092;-65
2023/12/20 22:57:55;;;;;;;3.60;2.17;;;;;;;7.08;100.00;99682.63;10333347;28;20053;-64
2023/12/20 23:02:57;;;;;;;4.07;2.10;;;;;;;7.27;100.00;99703.28;10311660;28;20060;-62
2023/12/20 23:07:59;;;;;;;5.15;2.20;;;;;;;7.23;100.00;99699.16;10340149;28;20058;-63
2023/12/20 23:13:01;;;;;;;6.75;2.22;;;;;;;7.19;100.00;99680.03;10350826;28;20050;-64
2023/12/20 23:18:02;;;;;;;4.03;2.17;;;;;;;7.15;100.00;99661.84;10345376;28;20077;-63
2023/12/20 23:23:04;;;;;;;3.03;2.22;;;;;;;7.22;100.00;99681.56;10341706;28;20567;-63